Time;durP1;ratioP1;P1;durP2;ratioP2;P2;SDS_P1;SDS_P2;PMS_P1;PMS_P2;Temp;Humidity;BMP_temperature;BMP_pressure;BME280_temperature;BME280_humidity;BME280_pressure;Samples;Min_cycle;Max_cycle;Signal;HPM_P1;HPM_P2
2022/12/21 00:02:04;;;;;;;14.33;9.50;;;7.20;99.90;;;;;;5015006;28;20201;-80
2022/12/21 00:04:30;;;;;;;11.00;8.73;;;7.20;99.90;;;;;;4997632;28;20174;-80
2022/12/21 00:06:56;;;;;;;11.43;8.63;;;7.20;99.90;;;;;;5015821;28;20201;-80
2022/12/21 00:09:23;;;;;;;11.33;8.53;;;7.20;99.90;;;;;;5015988;28;20169;-80
2022/12/21 00:11:49;;;;;;;12.33;8.50;;;7.30;99.90;;;;;;4998011;28;20182;-80
2022/12/21 00:14:15;;;;;;;11.50;8.37;;;7.20;99.90;;;;;;4998092;28;20181;-80
2022/12/21 00:16:42;;;;;;;12.63;8.37;;;7.30;99.90;;;;;;4998085;28;20214;-80
2022/12/21 00:19:10;;;;;;;13.97;9.43;;;7.20;99.90;;;;;;4998181;28;20172;-80
2022/12/21 00:21:36;;;;;;;11.57;8.93;;;7.20;99.90;;;;;;4998450;28;20173;-80
2022/12/21 00:24:03;;;;;;;11.93;8.50;;;7.20;99.90;;;;;;5015251;28;20325;-80
2022/12/21 00:26:31;;;;;;;12.40;8.87;;;7.20;99.90;;;;;;4998229;28;20692;-80
2022/12/21 00:28:58;;;;;;;10.40;8.50;;;7.20;99.90;;;;;;4998275;28;20189;-80
2022/12/21 00:31:26;;;;;;;10.30;8.50;;;7.20;99.90;;;;;;5015748;28;20457;-81
2022/12/21 00:33:53;;;;;;;12.53;8.43;;;7.20;99.90;;;;;;4997778;28;20186;-80
2022/12/21 00:36:20;;;;;;;11.33;8.57;;;7.20;99.90;;;;;;4998728;28;20373;-80
2022/12/21 00:38:49;;;;;;;11.83;8.87;;;7.10;99.90;;;;;;4998287;28;20258;-80
2022/12/21 00:41:20;;;;;;;10.90;8.63;;;7.20;99.90;;;;;;4998261;28;20210;-80
2022/12/21 00:43:47;;;;;;;10.60;8.23;;;7.20;99.90;;;;;;5015688;28;20666;-80
2022/12/21 00:46:20;;;;;;;12.47;8.37;;;7.20;99.90;;;;;;4997847;28;20597;-81
2022/12/21 00:48:46;;;;;;;11.63;9.00;;;7.20;99.90;;;;;;4998784;28;20182;-80
2022/12/21 00:51:15;;;;;;;10.60;8.47;;;7.10;99.90;;;;;;5016017;28;20185;-80
2022/12/21 00:53:41;;;;;;;12.43;8.80;;;7.20;99.90;;;;;;5015679;28;20178;-81
2022/12/21 00:56:07;;;;;;;10.40;8.30;;;7.10;99.90;;;;;;5015962;28;20203;-81
2022/12/21 00:58:34;;;;;;;9.90;8.20;;;7.10;99.90;;;;;;4995945;28;20174;-81
2022/12/21 01:01:04;;;;;;;10.10;8.30;;;7.10;99.90;;;;;;5013861;28;20185;-80
2022/12/21 01:03:31;;;;;;;9.43;7.97;;;7.10;99.90;;;;;;5012912;28;20182;-80
2022/12/21 01:05:57;;;;;;;11.20;8.37;;;7.10;99.90;;;;;;5013332;28;20750;-80
2022/12/21 01:08:23;;;;;;;8.53;6.73;;;7.10;99.90;;;;;;4995676;28;20272;-80
2022/12/21 01:10:55;;;;;;;9.73;7.63;;;7.10;99.90;;;;;;4995798;28;20177;-80
2022/12/21 01:13:20;;;;;;;9.33;7.00;;;7.10;99.90;;;;;;5013205;28;20277;-80
2022/12/21 01:15:46;;;;;;;8.57;7.47;;;7.10;99.90;;;;;;5013090;28;20340;-80
2022/12/21 01:18:14;;;;;;;9.13;7.27;;;7.10;99.90;;;;;;5049601;22;20696;-87
2022/12/21 01:20:47;;;;;;;10.00;7.30;;;7.00;99.90;;;;;;5031314;28;20178;-86
2022/12/21 01:23:13;;;;;;;9.33;7.13;;;7.00;99.90;;;;;;5032126;28;20204;-85
2022/12/21 01:25:41;;;;;;;9.33;7.30;;;7.00;99.90;;;;;;5032816;28;20178;-85
2022/12/21 01:28:06;;;;;;;9.73;7.57;;;7.00;99.90;;;;;;5031202;28;20194;-85
2022/12/21 01:30:32;;;;;;;9.57;7.20;;;7.00;99.90;;;;;;5031298;28;20274;-85
2022/12/21 01:32:57;;;;;;;8.73;7.33;;;7.00;99.90;;;;;;5031925;28;20284;-85
2022/12/21 01:35:23;;;;;;;8.83;7.33;;;6.90;99.90;;;;;;5031298;28;20213;-85
2022/12/21 01:37:49;;;;;;;9.40;7.00;;;6.90;99.90;;;;;;5032297;28;20227;-85
2022/12/21 01:40:14;;;;;;;9.63;7.83;;;6.90;99.90;;;;;;5029300;28;20690;-85
2022/12/21 01:42:40;;;;;;;9.97;7.17;;;6.90;99.90;;;;;;5031892;28;20252;-84
2022/12/21 01:45:26;;;;;;;8.47;7.00;;;6.90;99.90;;;;;;5031117;28;20196;-85
2022/12/21 01:48:04;;;;;;;8.30;6.90;;;6.90;99.90;;;;;;5032128;28;20200;-85
2022/12/21 01:51:01;;;;;;;7.93;6.53;;;6.90;99.90;;;;;;5031153;28;20179;-85
2022/12/21 01:53:32;;;;;;;9.10;7.07;;;6.90;99.90;;;;;;5031074;28;20184;-85
2022/12/21 01:56:00;;;;;;;8.57;7.53;;;6.90;99.90;;;;;;5032230;28;20216;-85
2022/12/21 01:58:28;;;;;;;9.80;7.63;;;6.80;99.90;;;;;;5032291;28;20203;-86
2022/12/21 02:00:57;;;;;;;9.80;7.67;;;6.80;99.90;;;;;;5030868;28;20181;-84
2022/12/21 02:03:27;;;;;;;9.03;7.67;;;6.80;99.90;;;;;;5030166;28;20177;-85
2022/12/21 02:05:58;;;;;;;8.60;7.23;;;6.80;99.90;;;;;;5030931;28;20295;-86
2022/12/21 02:08:24;;;;;;;9.07;7.93;;;6.80;99.90;;;;;;5030636;28;20212;-86
2022/12/21 02:10:51;;;;;;;9.10;7.70;;;6.80;99.90;;;;;;5031849;28;20189;-84
2022/12/21 02:13:17;;;;;;;10.93;8.13;;;6.80;99.90;;;;;;5031300;28;20545;-85
2022/12/21 02:16:22;;;;;;;9.93;7.60;;;6.80;99.90;;;;;;5030578;28;20701;-85
2022/12/21 02:19:38;;;;;;;11.47;7.27;;;6.80;99.90;;;;;;5030718;28;20659;-84
2022/12/21 02:22:12;;;;;;;11.50;9.03;;;6.80;99.90;;;;;;5022402;28;20667;-85
2022/12/21 02:24:49;;;;;;;9.43;8.03;;;6.80;99.90;;;;;;5031169;28;20200;-85
2022/12/21 02:27:27;;;;;;;9.43;7.90;;;6.70;99.90;;;;;;5035882;28;20244;-85
2022/12/21 02:30:04;;;;;;;9.37;8.07;;;6.70;99.90;;;;;;5034596;28;20278;-85
2022/12/21 02:32:52;;;;;;;9.43;7.87;;;6.70;99.90;;;;;;5033897;28;20754;-85
2022/12/21 02:35:30;;;;;;;10.50;8.50;;;6.70;99.90;;;;;;5035782;28;20225;-85
2022/12/21 02:37:56;;;;;;;9.70;7.83;;;6.80;99.90;;;;;;5035653;28;20220;-85
2022/12/21 02:40:31;;;;;;;9.70;8.13;;;6.80;99.90;;;;;;5034452;28;20194;-85
2022/12/21 02:46:04;;;;;;;9.40;8.13;;;6.80;99.90;;;;;;5035923;28;20185;-85
2022/12/21 02:48:40;;;;;;;10.70;8.23;;;6.80;99.90;;;;;;5034195;28;20580;-85
2022/12/21 02:51:12;;;;;;;9.33;7.90;;;6.70;99.90;;;;;;5033972;28;20185;-85
2022/12/21 02:53:39;;;;;;;10.80;8.47;;;6.70;99.90;;;;;;5033846;28;20205;-85
2022/12/21 02:56:13;;;;;;;10.97;8.57;;;6.60;99.90;;;;;;5035291;28;20209;-85
2022/12/21 02:58:38;;;;;;;8.97;8.07;;;6.70;99.90;;;;;;5034089;28;20173;-85
2022/12/21 03:01:46;;;;;;;10.03;8.00;;;6.70;99.90;;;;;;5035751;28;20176;-85
2022/12/21 03:04:18;;;;;;;8.70;7.77;;;6.70;99.90;;;;;;5033407;28;20176;-85
2022/12/21 03:06:58;;;;;;;9.40;7.30;;;6.70;99.90;;;;;;5033808;28;20247;-85
2022/12/21 03:09:50;;;;;;;10.90;7.97;;;6.70;99.90;;;;;;5035389;28;20160;-85
2022/12/21 03:12:43;;;;;;;9.03;7.20;;;6.70;99.90;;;;;;5033440;28;20217;-85
2022/12/21 03:15:51;;;;;;;8.67;7.10;;;6.80;99.90;;;;;;5033700;28;20205;-85
2022/12/21 03:18:37;;;;;;;8.23;6.80;;;6.80;99.90;;;;;;5052180;28;20302;-85
2022/12/21 03:21:14;;;;;;;7.17;6.47;;;6.80;99.90;;;;;;5054863;28;20172;-85
2022/12/21 03:23:56;;;;;;;8.63;6.63;;;6.80;99.90;;;;;;5052962;28;20187;-85
2022/12/21 03:26:41;;;;;;;8.73;7.40;;;6.90;99.90;;;;;;5053182;28;20553;-85
2022/12/21 03:29:10;;;;;;;8.60;6.60;;;6.90;99.90;;;;;;5054786;28;20211;-85
2022/12/21 03:31:40;;;;;;;7.63;6.33;;;6.90;99.90;;;;;;5054673;28;20188;-85
2022/12/21 03:34:13;;;;;;;8.13;6.57;;;6.90;99.90;;;;;;5052812;28;20189;-85
2022/12/21 03:37:05;;;;;;;8.33;6.70;;;6.90;99.90;;;;;;5051642;28;20207;-85
2022/12/21 03:39:34;;;;;;;7.73;6.47;;;6.90;99.90;;;;;;5053288;28;20639;-85
2022/12/21 03:42:13;;;;;;;7.63;6.13;;;6.90;99.90;;;;;;5053303;28;20192;-85
2022/12/21 03:44:43;;;;;;;6.93;6.23;;;6.90;99.90;;;;;;5054370;28;20173;-85
2022/12/21 03:47:17;;;;;;;6.80;6.10;;;6.90;99.90;;;;;;5054283;28;20195;-85
2022/12/21 03:49:51;;;;;;;8.27;7.10;;;6.80;99.90;;;;;;5053197;28;20181;-85
2022/12/21 03:52:20;;;;;;;7.67;6.57;;;6.80;99.90;;;;;;5052710;28;20173;-85
2022/12/21 03:55:00;;;;;;;8.17;6.87;;;6.80;99.90;;;;;;5054039;28;20704;-86
2022/12/21 03:57:26;;;;;;;8.67;6.50;;;6.80;99.90;;;;;;5052807;28;20208;-86
2022/12/21 03:59:55;;;;;;;8.37;6.67;;;6.80;99.90;;;;;;5052700;28;20226;-85
2022/12/21 04:02:42;;;;;;;7.73;6.60;;;6.80;99.90;;;;;;5052493;28;20180;-86
2022/12/21 04:05:23;;;;;;;8.47;6.93;;;6.80;99.90;;;;;;5052655;28;20181;-86
2022/12/21 04:07:50;;;;;;;8.93;6.97;;;6.70;99.90;;;;;;5052746;28;20701;-86
2022/12/21 04:10:19;;;;;;;8.50;7.00;;;6.80;99.90;;;;;;5052587;28;20181;-85
2022/12/21 04:12:46;;;;;;;8.37;6.53;;;6.80;99.90;;;;;;5052246;28;20173;-85
2022/12/21 04:15:16;;;;;;;7.43;6.60;;;6.80;99.90;;;;;;5052690;28;20183;-85
2022/12/21 04:17:44;;;;;;;7.10;6.37;;;6.80;99.90;;;;;;5052408;28;20217;-86
2022/12/21 04:20:12;;;;;;;8.07;6.70;;;6.80;99.90;;;;;;5053679;28;20220;-85
2022/12/21 04:28:26;;;;;;;8.23;6.50;;;6.90;99.90;;;;;;5053910;28;20683;-85
2022/12/21 04:30:52;;;;;;;7.47;6.40;;;6.80;99.90;;;;;;5053450;28;20177;-87
2022/12/21 04:33:20;;;;;;;8.07;5.90;;;6.80;99.90;;;;;;5052782;28;20176;-87
2022/12/21 04:38:34;;;;;;;7.03;6.30;;;6.80;99.90;;;;;;5053610;28;20203;-85
2022/12/21 04:40:59;;;;;;;7.27;5.97;;;6.80;99.90;;;;;;5053179;28;20200;-85
2022/12/21 04:43:26;;;;;;;6.80;5.40;;;6.80;99.90;;;;;;5052882;28;20551;-85
2022/12/21 04:46:11;;;;;;;7.13;5.70;;;6.80;99.90;;;;;;5053137;28;20181;-85
2022/12/21 04:48:37;;;;;;;6.17;5.47;;;6.90;99.90;;;;;;5052783;28;20181;-85
2022/12/21 04:51:21;;;;;;;7.57;6.13;;;6.80;99.90;;;;;;5051859;28;20230;-85
2022/12/21 04:53:47;;;;;;;7.03;5.90;;;6.80;99.90;;;;;;5051399;28;20188;-85
2022/12/21 04:56:13;;;;;;;6.60;5.50;;;6.80;99.90;;;;;;5051505;28;20196;-86
2022/12/21 04:58:39;;;;;;;6.03;5.43;;;6.80;99.90;;;;;;5051834;28;20522;-86
2022/12/21 05:01:19;;;;;;;6.20;5.00;;;6.70;99.90;;;;;;5052707;28;20182;-85
2022/12/21 05:03:46;;;;;;;5.93;5.13;;;6.80;99.90;;;;;;5052288;28;20210;-85
2022/12/21 05:06:13;;;;;;;5.50;4.90;;;6.70;99.90;;;;;;5051492;28;20239;-85
2022/12/21 05:08:39;;;;;;;5.67;5.07;;;6.70;99.90;;;;;;5052904;28;20640;-85
2022/12/21 05:11:16;;;;;;;5.53;5.03;;;6.70;99.90;;;;;;5051572;28;20187;-85
2022/12/21 05:13:42;;;;;;;5.40;4.50;;;6.70;99.90;;;;;;5051946;28;20269;-86
2022/12/21 05:16:11;;;;;;;6.07;4.93;;;6.80;99.90;;;;;;5051274;28;20209;-85
2022/12/21 05:18:37;;;;;;;5.83;5.10;;;6.90;99.90;;;;;;5051193;28;20181;-85
2022/12/21 05:21:03;;;;;;;5.47;4.87;;;6.90;99.90;;;;;;5052422;28;20183;-85
2022/12/21 05:23:28;;;;;;;7.00;5.70;;;6.90;99.90;;;;;;5050839;28;20227;-85
2022/12/21 05:25:54;;;;;;;5.77;5.17;;;6.90;99.90;;;;;;5051373;28;20180;-85
2022/12/21 05:28:19;;;;;;;5.93;5.20;;;6.80;99.90;;;;;;5052415;28;20640;-85
2022/12/21 05:30:45;;;;;;;6.10;5.30;;;6.80;99.90;;;;;;5052482;28;20208;-85
2022/12/21 05:33:11;;;;;;;6.13;5.50;;;6.80;99.90;;;;;;5050663;28;20185;-85
2022/12/21 05:35:40;;;;;;;6.53;5.83;;;6.80;99.90;;;;;;5051005;28;20205;-85
2022/12/21 05:38:06;;;;;;;9.27;7.70;;;6.70;99.90;;;;;;5051198;28;20642;-85
2022/12/21 05:40:33;;;;;;;7.77;6.40;;;6.60;99.90;;;;;;5051126;28;20181;-85
2022/12/21 05:42:59;;;;;;;9.67;7.93;;;6.50;99.90;;;;;;5050536;28;20173;-86
2022/12/21 05:45:25;;;;;;;6.23;5.20;;;6.40;99.90;;;;;;5050979;28;20179;-85
2022/12/21 05:47:50;;;;;;;7.90;6.10;;;6.50;99.90;;;;;;5051943;28;20194;-86
2022/12/21 05:50:16;;;;;;;7.07;6.00;;;6.50;99.90;;;;;;5050710;28;20178;-85
2022/12/21 05:52:42;;;;;;;7.77;6.30;;;6.60;99.90;;;;;;5050377;28;20553;-87
2022/12/21 05:55:08;;;;;;;7.00;6.03;;;6.70;99.90;;;;;;5051048;28;20196;-86
2022/12/21 05:57:33;;;;;;;7.07;5.97;;;6.70;99.90;;;;;;5051993;28;20210;-87
2022/12/21 05:59:59;;;;;;;6.90;6.07;;;6.80;99.90;;;;;;5050111;28;20193;-86
2022/12/21 06:02:24;;;;;;;7.10;6.40;;;6.80;99.90;;;;;;5051520;28;20264;-86
2022/12/21 06:04:50;;;;;;;7.10;6.40;;;6.80;99.90;;;;;;5051012;28;20239;-87
2022/12/21 06:07:15;;;;;;;8.60;7.00;;;6.90;99.90;;;;;;5050997;28;20204;-85
2022/12/21 06:09:41;;;;;;;7.63;6.60;;;6.90;99.90;;;;;;5050819;28;20176;-85
2022/12/21 06:12:06;;;;;;;7.77;6.40;;;6.90;99.90;;;;;;5050795;28;20169;-87
2022/12/21 06:14:32;;;;;;;7.80;6.70;;;6.90;99.90;;;;;;5051305;28;20176;-86
2022/12/21 06:16:57;;;;;;;8.23;6.87;;;6.90;99.90;;;;;;5050528;28;20299;-83
2022/12/21 06:19:23;;;;;;;8.70;6.70;;;6.90;99.90;;;;;;5050608;28;20176;-85
2022/12/21 06:21:48;;;;;;;7.67;6.13;;;6.90;99.90;;;;;;5052044;28;20184;-86
2022/12/21 06:24:14;;;;;;;6.70;5.93;;;7.00;99.90;;;;;;5050056;28;20185;-82
2022/12/21 06:26:40;;;;;;;7.83;6.17;;;7.10;99.90;;;;;;5050751;28;20220;-83
2022/12/21 06:29:05;;;;;;;6.43;5.57;;;7.10;99.90;;;;;;5050611;28;20178;-83
2022/12/21 06:31:31;;;;;;;7.17;5.60;;;7.20;99.90;;;;;;5050528;28;20235;-83
2022/12/21 06:33:56;;;;;;;7.47;6.03;;;7.10;99.90;;;;;;5049871;28;20174;-83
2022/12/21 06:36:22;;;;;;;5.83;5.23;;;7.20;99.90;;;;;;5050302;28;20211;-84
2022/12/21 06:38:47;;;;;;;6.50;5.20;;;7.20;99.90;;;;;;5050727;28;20604;-83
2022/12/21 06:41:15;;;;;;;5.83;5.23;;;7.20;99.90;;;;;;5051765;28;20302;-83
2022/12/21 06:43:41;;;;;;;5.90;5.30;;;7.20;99.90;;;;;;5050070;28;20304;-82
2022/12/21 06:46:10;;;;;;;6.60;4.90;;;7.30;99.90;;;;;;5051535;28;20177;-83
2022/12/21 06:48:36;;;;;;;5.33;4.83;;;7.30;99.90;;;;;;5051644;28;20243;-85
2022/12/21 06:51:23;;;;;;;6.27;5.50;;;7.30;99.90;;;;;;5050430;28;20188;-85
2022/12/21 06:53:51;;;;;;;5.43;4.93;;;7.30;99.90;;;;;;5049673;28;20173;-85
2022/12/21 06:56:18;;;;;;;6.27;5.30;;;7.20;99.90;;;;;;5051393;28;20198;-85
2022/12/21 06:58:44;;;;;;;5.87;5.27;;;7.20;99.90;;;;;;5050401;28;20174;-84
2022/12/21 07:01:15;;;;;;;6.27;5.03;;;7.10;99.90;;;;;;5051289;28;20176;-87
2022/12/21 07:03:41;;;;;;;5.70;5.10;;;7.10;99.90;;;;;;5049436;28;20557;-85
2022/12/21 07:06:08;;;;;;;5.67;5.10;;;7.10;99.90;;;;;;5051505;28;20174;-85
2022/12/21 07:08:34;;;;;;;5.43;4.93;;;7.10;99.90;;;;;;5051270;28;20181;-85
2022/12/21 07:11:02;;;;;;;5.23;4.73;;;7.10;99.90;;;;;;5052461;28;20174;-83
2022/12/21 07:13:28;;;;;;;5.10;4.60;;;7.10;99.90;;;;;;5054387;28;20170;-84
2022/12/21 07:15:55;;;;;;;5.50;5.00;;;7.10;99.90;;;;;;5054826;28;20711;-84
2022/12/21 07:18:21;;;;;;;4.63;4.23;;;7.10;99.90;;;;;;5101226;22;20220;-85
2022/12/21 07:20:47;;;;;;;5.07;4.57;;;7.10;99.90;;;;;;5037644;28;20170;-84
2022/12/21 07:23:13;;;;;;;5.03;4.53;;;7.00;99.90;;;;;;5054709;28;20177;-85
2022/12/21 07:25:39;;;;;;;5.53;4.20;;;7.10;99.90;;;;;;5055233;28;20181;-84
2022/12/21 07:28:04;;;;;;;4.70;4.30;;;7.10;99.90;;;;;;5054984;28;20193;-84
2022/12/21 07:30:30;;;;;;;4.70;4.30;;;7.10;99.90;;;;;;5037230;28;20272;-84
2022/12/21 07:32:56;;;;;;;4.53;4.00;;;7.20;99.90;;;;;;5054614;28;20204;-82
2022/12/21 07:35:22;;;;;;;5.77;4.13;;;7.20;99.90;;;;;;5037001;28;20209;-83
2022/12/21 07:37:49;;;;;;;4.60;4.20;;;7.20;99.90;;;;;;5037013;28;20193;-85
2022/12/21 07:40:15;;;;;;;4.80;4.30;;;7.20;99.90;;;;;;5035684;28;20231;-84
2022/12/21 07:42:42;;;;;;;4.73;4.33;;;7.10;99.90;;;;;;5036399;28;20177;-85
2022/12/21 07:45:09;;;;;;;5.17;4.60;;;7.20;99.90;;;;;;5054880;28;20176;-85
2022/12/21 07:47:35;;;;;;;8.67;6.40;;;7.30;99.90;;;;;;5037287;28;20200;-85
2022/12/21 07:50:01;;;;;;;6.20;5.27;;;7.40;99.90;;;;;;5037304;28;20181;-85
2022/12/21 07:52:27;;;;;;;7.80;6.37;;;7.50;99.90;;;;;;5036092;28;20602;-85
2022/12/21 07:54:53;;;;;;;6.73;5.87;;;7.60;99.90;;;;;;5036717;28;20704;-85
2022/12/21 07:57:18;;;;;;;7.00;5.57;;;7.70;99.90;;;;;;5036665;28;20213;-81
2022/12/21 07:59:44;;;;;;;6.27;5.67;;;7.70;99.90;;;;;;5036743;28;20200;-85
2022/12/21 08:02:09;;;;;;;6.80;6.10;;;7.60;99.90;;;;;;5036529;28;20260;-85
2022/12/21 08:04:35;;;;;;;9.73;7.77;;;7.60;99.90;;;;;;5036099;28;20219;-85
2022/12/21 08:07:01;;;;;;;7.57;6.87;;;7.60;99.90;;;;;;5054030;28;20197;-86
2022/12/21 08:09:26;;;;;;;5.90;5.30;;;7.60;99.90;;;;;;5054858;28;20182;-86
2022/12/21 08:11:52;;;;;;;7.97;6.97;;;7.60;99.90;;;;;;5036858;28;20267;-86
2022/12/21 08:14:17;;;;;;;7.40;6.70;;;7.60;99.90;;;;;;5036238;28;20173;-86
2022/12/21 08:16:43;;;;;;;7.90;7.10;;;7.60;99.90;;;;;;5054081;28;20258;-86
2022/12/21 08:19:09;;;;;;;9.17;7.90;;;7.60;99.90;;;;;;5054521;28;20204;-86
2022/12/21 08:21:34;;;;;;;9.63;8.63;;;7.70;99.90;;;;;;5036984;28;20209;-86
2022/12/21 08:24:00;;;;;;;9.23;8.27;;;7.70;99.90;;;;;;5035316;28;20166;-85
2022/12/21 08:26:25;;;;;;;10.63;8.40;;;7.80;99.90;;;;;;5054327;28;20174;-86
2022/12/21 08:28:51;;;;;;;10.10;8.80;;;7.90;99.90;;;;;;5054579;28;20189;-85
2022/12/21 08:31:19;;;;;;;10.53;9.43;;;7.90;99.90;;;;;;5054712;28;20181;-86
2022/12/21 08:33:45;;;;;;;27.40;18.33;;;7.90;99.90;;;;;;5053878;28;20182;-85
2022/12/21 08:36:16;;;;;;;15.63;11.47;;;8.00;99.90;;;;;;5054922;28;20211;-83
2022/12/21 08:38:42;;;;;;;14.63;11.27;;;8.00;99.90;;;;;;5031885;28;20301;-82
2022/12/21 08:41:07;;;;;;;13.90;11.37;;;8.00;99.90;;;;;;5053364;28;20264;-82
2022/12/21 08:43:38;;;;;;;10.03;9.03;;;8.00;99.90;;;;;;5035055;28;20170;-84
2022/12/21 08:46:05;;;;;;;9.80;8.57;;;8.00;99.90;;;;;;5035365;28;20178;-86
2022/12/21 08:48:32;;;;;;;9.27;8.23;;;8.00;99.90;;;;;;5053142;28;20194;-85
2022/12/21 08:50:57;;;;;;;10.00;9.00;;;8.10;99.90;;;;;;5036053;28;20245;-84
2022/12/21 08:53:24;;;;;;;8.23;7.37;;;8.10;99.90;;;;;;5053826;28;20178;-84
2022/12/21 08:55:49;;;;;;;8.30;7.50;;;8.10;99.90;;;;;;5053671;28;20206;-83
2022/12/21 08:58:16;;;;;;;9.10;7.20;;;8.10;99.90;;;;;;5036801;28;20194;-84
2022/12/21 09:00:44;;;;;;;8.57;7.17;;;8.10;99.90;;;;;;5035879;28;20173;-83
2022/12/21 09:03:10;;;;;;;8.40;7.27;;;8.10;99.90;;;;;;5034817;28;20170;-84
2022/12/21 09:05:36;;;;;;;7.90;7.10;;;8.10;99.90;;;;;;5034476;28;20170;-84
2022/12/21 09:08:03;;;;;;;7.57;6.70;;;8.20;99.90;;;;;;5035351;28;20191;-83
2022/12/21 09:10:29;;;;;;;7.37;6.67;;;8.10;99.90;;;;;;5053747;28;20245;-81
2022/12/21 09:12:55;;;;;;;7.33;6.53;;;8.20;99.90;;;;;;5035956;28;20274;-84
2022/12/21 09:15:21;;;;;;;6.73;6.03;;;8.20;99.90;;;;;;5053588;28;20183;-83
2022/12/21 09:17:47;;;;;;;8.13;6.30;;;8.20;99.90;;;;;;5053111;28;20729;-85
2022/12/21 09:20:13;;;;;;;8.40;6.40;;;8.20;99.90;;;;;;5035558;28;20197;-83
2022/12/21 09:22:39;;;;;;;6.93;6.10;;;8.30;99.90;;;;;;5052419;28;20178;-83
2022/12/21 09:25:05;;;;;;;6.87;6.17;;;8.30;99.90;;;;;;5053772;28;20182;-84
2022/12/21 09:27:31;;;;;;;8.03;6.50;;;8.20;99.90;;;;;;5053320;28;20607;-85
2022/12/21 09:29:57;;;;;;;8.90;6.57;;;8.20;99.90;;;;;;5035257;28;20264;-81
2022/12/21 09:32:22;;;;;;;7.73;6.03;;;8.30;99.90;;;;;;5034604;28;20228;-83
2022/12/21 09:34:48;;;;;;;8.33;6.50;;;8.30;99.90;;;;;;5052735;28;20260;-83
2022/12/21 09:37:13;;;;;;;7.53;6.30;;;8.30;99.90;;;;;;5034749;28;20640;-84
2022/12/21 09:39:40;;;;;;;7.13;6.23;;;8.30;99.90;;;;;;5052379;28;20166;-84
2022/12/21 09:42:40;;;;;;;8.13;6.27;;;8.30;99.90;;;;;;5035053;28;20178;-82
2022/12/21 09:45:15;;;;;;;10.13;6.60;;;8.30;99.90;;;;;;5052638;28;20170;-83
2022/12/21 09:47:53;;;;;;;7.20;6.50;;;8.40;99.90;;;;;;5052455;28;20202;-82
2022/12/21 09:50:27;;;;;;;7.37;6.23;;;8.40;99.90;;;;;;5034946;28;20188;-82
2022/12/21 09:53:29;;;;;;;7.97;6.37;;;8.40;99.90;;;;;;5034219;28;20183;-82
2022/12/21 09:55:58;;;;;;;7.60;6.80;;;8.40;99.90;;;;;;4998239;28;20218;-83
2022/12/21 09:58:45;;;;;;;7.57;6.20;;;8.50;99.90;;;;;;5034441;28;20311;-82
2022/12/21 10:01:21;;;;;;;7.77;5.83;;;8.50;99.90;;;;;;5034963;28;20180;-83
2022/12/21 10:04:25;;;;;;;7.47;6.30;;;8.50;99.90;;;;;;5034270;28;20201;-83
2022/12/21 10:06:53;;;;;;;6.80;6.10;;;8.50;99.90;;;;;;5052181;28;20165;-83
2022/12/21 10:09:19;;;;;;;7.40;5.80;;;8.50;99.90;;;;;;5034501;28;20200;-82
2022/12/21 10:12:10;;;;;;;7.40;5.53;;;8.60;99.90;;;;;;5052382;28;20236;-82
2022/12/21 10:15:11;;;;;;;6.77;5.70;;;8.60;99.90;;;;;;5051640;28;20176;-82
2022/12/21 10:17:48;;;;;;;7.07;5.97;;;8.50;99.90;;;;;;5034444;28;20312;-82
2022/12/21 10:20:32;;;;;;;7.57;6.10;;;8.50;99.90;;;;;;5052206;28;20182;-82
2022/12/21 10:23:02;;;;;;;7.63;6.33;;;8.60;99.90;;;;;;5033765;28;20174;-82
2022/12/21 10:25:40;;;;;;;8.07;6.60;;;8.50;99.90;;;;;;5034150;28;20616;-83
2022/12/21 10:28:24;;;;;;;7.83;6.53;;;8.60;99.90;;;;;;5034180;28;20200;-83
2022/12/21 10:31:03;;;;;;;8.50;6.20;;;8.60;99.90;;;;;;5034445;28;20205;-82
2022/12/21 10:33:29;;;;;;;9.43;6.73;;;8.60;99.90;;;;;;5033446;28;20231;-83
2022/12/21 10:36:00;;;;;;;8.37;7.27;;;8.50;99.90;;;;;;5052066;28;20196;-83
2022/12/21 10:38:32;;;;;;;8.53;6.30;;;8.50;99.90;;;;;;5033996;28;20605;-81
2022/12/21 10:40:58;;;;;;;9.13;7.10;;;8.50;99.90;;;;;;5052152;28;20233;-83
2022/12/21 10:43:24;;;;;;;10.13;7.40;;;8.50;99.90;;;;;;5051347;28;20205;-80
2022/12/21 10:45:50;;;;;;;8.60;7.00;;;8.50;99.90;;;;;;5034801;28;20230;-84
2022/12/21 10:48:15;;;;;;;9.63;7.90;;;8.50;99.90;;;;;;5055796;28;20213;-84
2022/12/21 10:50:45;;;;;;;7.87;6.83;;;8.50;99.90;;;;;;5037361;28;20189;-83
2022/12/21 10:53:24;;;;;;;7.63;6.83;;;8.60;99.90;;;;;;5037060;28;20182;-83
2022/12/21 10:55:56;;;;;;;8.53;6.63;;;8.70;99.90;;;;;;5055657;28;20686;-82
2022/12/21 10:58:25;;;;;;;7.97;7.17;;;8.70;99.90;;;;;;5055613;28;20239;-83
2022/12/21 11:01:27;;;;;;;6.60;5.90;;;8.70;99.90;;;;;;5037503;28;20262;-83
2022/12/21 11:04:21;;;;;;;6.03;5.33;;;8.80;99.90;;;;;;5054903;28;20205;-86
2022/12/21 11:07:21;;;;;;;5.53;5.03;;;8.70;99.90;;;;;;5038711;28;20176;-85
2022/12/21 11:09:57;;;;;;;5.70;5.10;;;8.80;99.90;;;;;;5056354;28;20172;-82
2022/12/21 11:12:24;;;;;;;4.40;4.00;;;8.80;99.90;;;;;;5055600;28;20163;-83
2022/12/21 11:14:51;;;;;;;4.00;3.60;;;8.80;99.90;;;;;;5055545;28;20670;-83
2022/12/21 11:17:32;;;;;;;5.40;4.60;;;8.80;99.90;;;;;;5055642;28;20291;-83
2022/12/21 11:20:08;;;;;;;4.20;3.80;;;8.80;99.90;;;;;;5038622;28;20263;-84
2022/12/21 11:22:37;;;;;;;5.27;4.77;;;8.80;99.90;;;;;;5037675;28;20181;-84
2022/12/21 11:25:03;;;;;;;5.87;4.50;;;8.80;99.90;;;;;;5055776;28;20176;-83
2022/12/21 11:27:32;;;;;;;4.57;4.17;;;8.80;99.90;;;;;;5037674;28;20205;-84
2022/12/21 11:30:06;;;;;;;5.33;4.20;;;8.80;99.90;;;;;;5055130;28;20224;-84
2022/12/21 11:32:33;;;;;;;4.20;3.77;;;8.80;99.90;;;;;;5054548;28;20176;-84
2022/12/21 11:35:02;;;;;;;6.30;5.37;;;8.70;99.90;;;;;;5055042;28;20176;-84
2022/12/21 11:37:37;;;;;;;5.60;4.97;;;8.80;99.90;;;;;;5055174;28;20708;-84
2022/12/21 11:40:11;;;;;;;5.73;5.13;;;8.80;99.90;;;;;;5036948;28;20260;-84
2022/12/21 11:42:58;;;;;;;5.67;5.17;;;8.80;99.90;;;;;;5054503;28;20173;-83
2022/12/21 11:45:48;;;;;;;6.20;5.37;;;8.80;99.90;;;;;;5037095;28;20176;-84
2022/12/21 11:48:38;;;;;;;6.93;5.80;;;8.90;99.90;;;;;;5054908;28;20216;-83
2022/12/21 11:51:08;;;;;;;6.10;5.50;;;8.90;99.90;;;;;;5037225;28;20171;-83
2022/12/21 11:53:55;;;;;;;7.27;6.07;;;8.90;99.90;;;;;;5054145;28;20173;-85
2022/12/21 11:56:40;;;;;;;7.10;6.33;;;8.90;99.90;;;;;;5036592;28;20202;-85
2022/12/21 11:59:17;;;;;;;7.77;6.13;;;9.00;99.90;;;;;;5053767;28;20173;-84
2022/12/21 12:02:01;;;;;;;7.50;6.70;;;9.00;99.90;;;;;;5037057;28;20266;-84
2022/12/21 12:04:39;;;;;;;7.27;6.57;;;9.00;99.90;;;;;;5038029;28;20260;-83
2022/12/21 12:07:25;;;;;;;11.07;8.87;;;9.20;99.90;;;;;;5036132;28;20238;-82
2022/12/21 12:10:13;;;;;;;7.43;6.73;;;9.30;99.90;;;;;;5054420;28;20231;-82
2022/12/21 12:12:44;;;;;;;8.47;6.00;;;9.30;99.90;;;;;;5053891;28;20176;-84
2022/12/21 12:15:40;;;;;;;6.87;5.73;;;9.30;99.90;;;;;;5036261;28;20177;-84
2022/12/21 12:18:29;;;;;;;6.77;6.07;;;9.30;99.90;;;;;;5035836;28;20237;-85
2022/12/21 12:21:29;;;;;;;6.83;5.80;;;9.30;99.90;;;;;;5015102;28;20675;-84
2022/12/21 12:24:12;;;;;;;7.80;6.33;;;9.30;99.90;;;;;;5053523;28;20192;-85
2022/12/21 12:27:07;;;;;;;7.40;6.47;;;9.30;99.90;;;;;;5053541;28;20712;-84
2022/12/21 12:30:19;;;;;;;7.57;6.87;;;9.20;99.90;;;;;;5014893;28;20222;-83
2022/12/21 12:32:48;;;;;;;7.17;6.47;;;9.20;99.90;;;;;;5035960;28;20200;-81
2022/12/21 12:35:17;;;;;;;6.57;5.97;;;9.30;99.90;;;;;;5035981;28;20593;-81
2022/12/21 12:38:00;;;;;;;8.00;7.07;;;9.20;99.90;;;;;;5036074;28;20209;-83
2022/12/21 12:40:51;;;;;;;8.07;7.27;;;9.30;99.90;;;;;;5053712;28;20180;-83
2022/12/21 12:43:25;;;;;;;7.40;6.60;;;9.30;99.90;;;;;;5035450;28;20168;-83
2022/12/21 12:46:20;;;;;;;7.43;6.53;;;9.30;99.90;;;;;;5053583;28;20180;-83
2022/12/21 12:49:33;;;;;;;7.43;6.63;;;9.30;99.90;;;;;;5015525;28;20261;-83
2022/12/21 12:52:37;;;;;;;8.30;6.43;;;9.30;99.90;;;;;;5014358;28;20203;-83
2022/12/21 12:55:03;;;;;;;7.13;6.43;;;9.30;99.90;;;;;;5053269;28;20252;-83
2022/12/21 12:57:50;;;;;;;7.53;6.50;;;9.30;99.90;;;;;;5035345;28;20300;-84
2022/12/21 13:00:18;;;;;;;6.80;6.10;;;9.30;99.90;;;;;;5053558;28;20170;-83
2022/12/21 13:03:06;;;;;;;6.90;6.20;;;9.30;99.90;;;;;;5052679;28;20177;-85
2022/12/21 13:06:18;;;;;;;7.00;6.30;;;9.30;99.90;;;;;;5035139;28;20174;-84
2022/12/21 13:09:02;;;;;;;8.23;7.13;;;9.40;99.90;;;;;;5034722;28;20249;-83
2022/12/21 13:11:50;;;;;;;7.17;6.43;;;9.40;99.90;;;;;;5052855;28;20173;-83
2022/12/21 13:14:41;;;;;;;7.47;6.40;;;9.40;99.90;;;;;;5034526;28;20180;-83
2022/12/21 13:19:38;;;;;;;7.40;6.00;;;9.40;99.90;;;;;;4991293;28;20222;-89
2022/12/21 13:22:05;;;;;;;6.80;6.10;;;9.30;99.90;;;;;;4993314;28;20179;-88
2022/12/21 13:24:38;;;;;;;6.90;6.30;;;9.30;99.90;;;;;;4991498;28;20261;-89
2022/12/21 13:27:20;;;;;;;7.10;6.40;;;9.30;99.90;;;;;;4993315;28;20679;-88
2022/12/21 13:30:02;;;;;;;7.13;6.27;;;9.20;99.90;;;;;;4973739;28;20176;-88
2022/12/21 13:32:31;;;;;;;6.97;6.17;;;9.20;99.90;;;;;;4972157;28;20179;-88
2022/12/21 13:35:23;;;;;;;7.00;6.27;;;9.20;99.90;;;;;;4978998;28;20558;-89
2022/12/21 13:38:00;;;;;;;8.50;7.60;;;9.20;99.90;;;;;;4978772;28;20318;-89